Time;durP1;ratioP1;P1;durP2;ratioP2;P2;SDS_P1;SDS_P2;PMS_P1;PMS_P2;Temp;Humidity;BMP_temperature;BMP_pressure;BME280_temperature;BME280_humidity;BME280_pressure;Samples;Min_cycle;Max_cycle;Signal;HPM_P1;HPM_P2
2022/05/05 00:01:12;;;;;;;7.63;5.90;;;;;;;9.30;85.66;100640.38;5051120;28;20237;-72
2022/05/05 00:03:38;;;;;;;6.33;5.83;;;;;;;9.08;86.13;100648.34;5051088;28;20183;-71
2022/05/05 00:06:03;;;;;;;6.77;6.27;;;;;;;8.93;87.34;100650.19;5033209;28;20269;-71
2022/05/05 00:08:30;;;;;;;7.83;6.33;;;;;;;8.89;87.61;100654.63;5050924;28;20183;-72
2022/05/05 00:16:23;;;;;;;8.83;6.30;;;;;;;8.55;90.49;100649.38;5051206;28;20214;-73
2022/05/05 00:18:49;;;;;;;6.90;6.17;;;;;;;8.53;90.80;100659.75;5050616;28;20210;-72
2022/05/05 00:21:15;;;;;;;8.10;5.70;;;;;;;8.52;91.33;100652.69;5050850;28;20179;-72
2022/05/05 00:23:40;;;;;;;9.97;6.47;;;;;;;8.52;90.89;100657.31;5050822;28;20598;-73
2022/05/05 00:26:06;;;;;;;6.80;6.20;;;;;;;8.53;90.65;100664.38;5050977;28;20186;-72
2022/05/05 00:28:31;;;;;;;8.43;6.23;;;;;;;8.50;90.32;100657.59;5050784;28;20607;-72
2022/05/05 00:30:56;;;;;;;7.90;6.90;;;;;;;8.50;89.81;100663.06;5050641;28;20722;-72
2022/05/05 00:33:22;;;;;;;8.37;5.90;;;;;;;8.46;89.38;100666.66;5032867;28;20187;-72
2022/05/05 00:35:47;;;;;;;8.93;5.73;;;;;;;8.40;89.62;100665.13;5050606;28;20206;-72
2022/05/05 00:38:12;;;;;;;12.63;5.43;;;;;;;8.34;90.07;100667.88;5032287;28;20203;-72
2022/05/05 00:40:40;;;;;;;8.13;6.03;;;;;;;8.31;89.69;100673.06;5050796;28;20262;-72
2022/05/05 00:43:06;;;;;;;6.33;5.67;;;;;;;8.27;89.95;100677.50;5050665;28;20218;-72
2022/05/05 00:45:31;;;;;;;5.60;5.10;;;;;;;8.16;90.14;100676.78;5050703;28;20258;-72
2022/05/05 00:48:04;;;;;;;6.83;5.67;;;;;;;8.04;90.07;100679.09;5050265;28;20176;-72
2022/05/05 00:50:32;;;;;;;6.60;5.13;;;;;;;7.91;90.32;100677.84;5050542;28;20171;-72
2022/05/05 00:52:57;;;;;;;6.30;4.50;;;;;;;7.73;91.37;100675.88;5050545;28;20175;-72
2022/05/05 00:55:23;;;;;;;7.20;4.90;;;;;;;7.63;91.95;100674.06;5050481;28;20252;-72
2022/05/05 00:57:48;;;;;;;4.93;4.43;;;;;;;7.60;92.31;100671.09;5053081;28;20171;-72
2022/05/05 01:00:14;;;;;;;5.37;3.97;;;;;;;7.49;92.20;100675.81;5054438;28;20232;-72
2022/05/05 01:02:39;;;;;;;6.70;4.80;;;;;;;7.43;92.83;100679.69;5054448;28;20220;-72
2022/05/05 01:05:05;;;;;;;5.27;4.80;;;;;;;7.35;93.03;100683.78;5054414;28;20203;-72
2022/05/05 01:07:31;;;;;;;5.27;4.77;;;;;;;7.30;92.93;100681.13;5054179;28;20639;-71
2022/05/05 01:09:56;;;;;;;6.17;4.50;;;;;;;7.26;93.50;100682.00;5054335;28;20257;-72
2022/05/05 01:12:23;;;;;;;5.37;4.90;;;;;;;7.20;93.70;100692.06;5036378;28;20179;-72
2022/05/05 01:14:49;;;;;;;5.10;4.10;;;;;;;7.12;93.94;100679.91;5054290;28;20171;-72
2022/05/05 01:17:15;;;;;;;6.47;4.17;;;;;;;7.03;94.65;100687.03;5054031;28;20229;-72
2022/05/05 01:19:40;;;;;;;5.43;4.70;;;;;;;6.95;95.24;100687.63;5054365;28;20207;-72
2022/05/05 01:22:06;;;;;;;6.87;4.67;;;;;;;6.93;95.85;100689.78;5054113;28;20185;-72
2022/05/05 01:30:00;;;;;;;7.70;5.10;;;;;;;6.84;96.69;100683.34;5053861;28;20247;-72
2022/05/05 01:32:32;;;;;;;11.17;5.60;;;;;;;6.86;96.69;100681.97;5054250;28;20176;-72
2022/05/05 01:34:59;;;;;;;6.60;4.93;;;;;;;6.84;96.84;100686.06;5053835;28;20184;-72
2022/05/05 01:37:24;;;;;;;6.57;5.07;;;;;;;6.87;96.21;100696.38;5053695;28;20171;-72
2022/05/05 01:39:49;;;;;;;8.37;5.17;;;;;;;6.84;96.32;100694.22;5053560;28;20728;-72
2022/05/05 01:42:15;;;;;;;7.23;5.37;;;;;;;6.79;96.07;100696.94;5053781;28;20211;-72
2022/05/05 01:44:41;;;;;;;8.27;5.23;;;;;;;6.71;96.26;100697.53;5053790;28;20177;-73
2022/05/05 01:47:06;;;;;;;5.13;4.73;;;;;;;6.66;96.41;100694.84;5053487;28;20262;-71
2022/05/05 01:49:31;;;;;;;5.70;4.87;;;;;;;6.59;96.78;100703.28;5053814;28;20186;-72
2022/05/05 01:51:58;;;;;;;4.77;4.37;;;;;;;6.53;97.28;100707.94;5053761;28;20175;-72
2022/05/05 01:54:24;;;;;;;7.43;5.37;;;;;;;6.45;97.95;100708.50;5053533;28;20229;-73
2022/05/05 01:56:49;;;;;;;6.87;4.70;;;;;;;6.40;98.35;100716.66;5049010;28;20179;-73
2022/05/05 01:59:14;;;;;;;7.47;4.67;;;;;;;6.35;98.55;100713.16;5053082;28;20289;-73
2022/05/05 02:01:40;;;;;;;5.83;5.30;;;;;;;6.33;99.11;100715.31;5053399;28;20180;-72
2022/05/05 02:04:06;;;;;;;8.67;5.30;;;;;;;6.31;98.95;100723.75;5053525;28;20568;-73
2022/05/05 02:06:31;;;;;;;8.27;4.87;;;;;;;6.35;99.12;100730.25;5053799;28;20179;-72
2022/05/05 02:08:57;;;;;;;8.30;4.70;;;;;;;6.38;98.90;100735.13;5052711;28;20189;-73
2022/05/05 02:11:22;;;;;;;8.33;5.90;;;;;;;6.40;98.60;100734.84;5053317;28;20239;-72
2022/05/05 02:13:49;;;;;;;7.30;5.23;;;;;;;6.36;98.29;100729.16;5035531;28;20215;-72
2022/05/05 02:16:14;;;;;;;6.73;5.93;;;;;;;6.32;98.30;100732.69;5035624;28;20595;-72
2022/05/05 02:18:39;;;;;;;8.87;5.13;;;;;;;6.31;98.54;100734.59;5052973;28;20203;-74
2022/05/05 02:21:05;;;;;;;5.20;4.77;;;;;;;6.24;98.83;100736.81;5035152;28;20182;-72
2022/05/05 02:23:30;;;;;;;5.50;5.00;;;;;;;6.18;99.09;100738.69;5053315;28;20183;-75
2022/05/05 02:25:56;;;;;;;5.20;4.70;;;;;;;6.16;99.30;100740.06;5052918;28;20566;-72
2022/05/05 02:28:21;;;;;;;6.50;4.63;;;;;;;6.11;99.77;100740.09;5052781;28;20232;-72
2022/05/05 02:30:48;;;;;;;6.13;5.20;;;;;;;6.09;100.00;100734.13;5053224;28;20262;-72
2022/05/05 02:33:13;;;;;;;5.07;4.63;;;;;;;6.11;100.00;100743.59;5053007;28;20183;-73
2022/05/05 02:35:38;;;;;;;6.50;5.87;;;;;;;6.08;100.00;100737.94;5053078;28;20179;-72
2022/05/05 02:40:48;;;;;;;6.77;4.87;;;;;;;6.07;99.88;100747.94;5053276;28;20642;-72
2022/05/05 02:43:13;;;;;;;6.97;4.83;;;;;;;6.02;99.92;100744.44;5053097;28;20210;-72
2022/05/05 02:45:40;;;;;;;5.53;5.13;;;;;;;5.96;100.00;100752.59;5053329;28;20175;-73
2022/05/05 02:48:06;;;;;;;5.30;4.80;;;;;;;5.91;100.00;100755.28;5053113;28;20175;-72
2022/05/05 02:50:31;;;;;;;5.53;5.03;;;;;;;5.89;100.00;100746.56;5059815;28;20176;-73
2022/05/05 02:52:57;;;;;;;7.70;4.43;;;;;;;5.80;100.00;100740.09;5060765;28;20229;-73
2022/05/05 02:55:23;;;;;;;8.13;5.40;;;;;;;5.75;100.00;100748.22;5057814;28;20199;-72
2022/05/05 02:57:49;;;;;;;6.50;4.80;;;;;;;5.66;100.00;100741.72;5053208;28;20662;-71
2022/05/05 03:00:15;;;;;;;6.30;5.70;;;;;;;5.50;100.00;100746.34;5052453;28;20559;-72
2022/05/05 03:02:42;;;;;;;5.53;5.03;;;;;;;5.46;100.00;100747.13;5052181;28;20171;-71
2022/05/05 03:05:17;;;;;;;9.83;5.90;;;;;;;5.41;100.00;100745.22;5034276;28;20207;-72
2022/05/05 03:07:43;;;;;;;7.23;4.97;;;;;;;5.30;100.00;100738.16;5052074;28;20171;-72
2022/05/05 03:10:10;;;;;;;8.70;5.97;;;;;;;5.19;100.00;100750.88;5052160;28;20689;-71
2022/05/05 03:12:35;;;;;;;5.77;5.27;;;;;;;5.12;100.00;100742.22;5052202;28;20175;-72
2022/05/05 03:15:00;;;;;;;7.97;6.13;;;;;;;5.11;100.00;100743.28;5051937;28;20175;-72
2022/05/05 03:17:26;;;;;;;5.90;5.40;;;;;;;5.16;100.00;100743.28;5051807;28;20190;-72
2022/05/05 03:19:51;;;;;;;6.40;5.53;;;;;;;5.12;100.00;100742.22;5051318;28;20215;-71
2022/05/05 03:22:17;;;;;;;6.10;5.60;;;;;;;5.04;100.00;100742.72;5051464;28;20252;-72
2022/05/05 03:24:42;;;;;;;6.30;5.70;;;;;;;5.12;100.00;100736.78;5051845;28;20179;-72
2022/05/05 03:27:07;;;;;;;11.27;7.13;;;;;;;5.19;100.00;100737.31;5051799;28;20186;-71
2022/05/05 03:29:32;;;;;;;6.10;5.50;;;;;;;5.20;100.00;100746.25;5051706;28;20696;-73
2022/05/05 03:31:58;;;;;;;7.30;5.90;;;;;;;5.20;100.00;100738.13;5051638;28;20202;-72
2022/05/05 03:34:24;;;;;;;5.87;5.37;;;;;;;5.20;100.00;100746.25;5051655;28;20180;-72
2022/05/05 03:36:49;;;;;;;6.70;5.97;;;;;;;5.16;100.00;100746.00;5051558;28;20171;-71
2022/05/05 03:39:14;;;;;;;6.30;5.63;;;;;;;5.12;100.00;100744.09;5051284;28;20202;-72
2022/05/05 03:41:39;;;;;;;8.20;6.27;;;;;;;5.04;100.00;100746.22;5051360;28;20179;-72
2022/05/05 03:44:08;;;;;;;7.20;5.90;;;;;;;5.03;100.00;100743.78;5051097;28;20187;-72
2022/05/05 03:46:33;;;;;;;7.10;5.90;;;;;;;5.06;100.00;100744.09;5051758;28;20175;-72
2022/05/05 03:48:59;;;;;;;10.03;6.33;;;;;;;5.06;100.00;100752.22;5051274;28;20179;-72
2022/05/05 03:51:25;;;;;;;7.50;6.00;;;;;;;5.07;100.00;100751.13;5051348;28;20658;-73
2022/05/05 03:53:51;;;;;;;7.67;5.97;;;;;;;5.07;100.00;100748.44;5051258;28;20638;-72
2022/05/05 03:56:16;;;;;;;6.83;6.23;;;;;;;5.05;100.00;100747.03;5051596;28;20191;-72
2022/05/05 03:58:41;;;;;;;6.80;6.13;;;;;;;5.05;100.00;100752.47;5050785;28;20219;-73
2022/05/05 04:01:07;;;;;;;7.07;6.17;;;;;;;5.00;100.00;100752.47;5050777;28;20171;-72
2022/05/05 04:03:32;;;;;;;6.57;5.97;;;;;;;4.98;100.00;100752.72;5050980;28;20206;-72
2022/05/05 04:06:03;;;;;;;9.27;5.70;;;;;;;5.03;100.00;100755.44;5051062;28;20179;-73
2022/05/05 04:08:30;;;;;;;9.77;5.97;;;;;;;5.09;100.00;100759.00;5050796;28;20182;-72
2022/05/05 04:10:56;;;;;;;7.23;6.07;;;;;;;5.13;100.00;100761.97;5050848;28;20232;-73
2022/05/05 04:13:21;;;;;;;6.90;6.03;;;;;;;5.11;100.00;100762.25;5050910;28;20175;-72
2022/05/05 04:15:47;;;;;;;7.23;6.27;;;;;;;5.07;100.00;100753.03;5050877;28;20551;-72
2022/05/05 04:18:12;;;;;;;10.73;5.83;;;;;;;5.06;100.00;100763.06;5050542;28;20191;-72
2022/05/05 04:20:39;;;;;;;6.30;5.70;;;;;;;5.12;100.00;100768.47;5050645;28;20629;-72
2022/05/05 04:23:05;;;;;;;6.83;6.13;;;;;;;5.19;100.00;100772.53;5050676;28;20171;-73
2022/05/05 04:25:31;;;;;;;6.90;6.13;;;;;;;5.20;100.00;100773.34;5051097;28;20179;-72
2022/05/05 04:27:57;;;;;;;7.37;6.53;;;;;;;5.29;100.00;100769.84;5050555;28;20167;-73
2022/05/05 04:30:22;;;;;;;6.40;5.80;;;;;;;5.45;100.00;100773.41;5032787;28;20225;-72
2022/05/05 04:32:48;;;;;;;7.07;6.57;;;;;;;5.62;100.00;100773.16;5050336;28;20186;-72
2022/05/05 04:35:15;;;;;;;7.07;6.47;;;;;;;5.68;100.00;100788.34;5050608;28;20171;-73
2022/05/05 04:37:40;;;;;;;6.50;5.87;;;;;;;5.69;100.00;100784.56;5050244;28;20175;-72
2022/05/05 04:40:07;;;;;;;6.10;5.50;;;;;;;5.72;100.00;100777.78;5032442;28;20203;-72
2022/05/05 04:42:33;;;;;;;9.23;7.20;;;;;;;5.71;100.00;100779.66;5050350;28;20262;-73
2022/05/05 04:44:58;;;;;;;6.90;6.27;;;;;;;5.73;100.00;100782.09;5050864;28;20258;-73
2022/05/05 04:47:24;;;;;;;6.47;5.80;;;;;;;5.72;100.00;100786.72;5032251;28;20206;-74
2022/05/05 04:49:49;;;;;;;11.03;5.87;;;;;;;5.77;100.00;100785.88;5050347;28;20438;-72
2022/05/05 04:52:14;;;;;;;7.83;5.57;;;;;;;5.84;100.00;100781.03;5050308;28;20180;-72
2022/05/05 04:54:40;;;;;;;6.43;5.93;;;;;;;5.91;100.00;100785.09;5050446;28;20203;-72
2022/05/05 04:57:06;;;;;;;7.73;5.37;;;;;;;5.97;100.00;100792.16;5050427;28;20205;-72
2022/05/05 04:59:31;;;;;;;6.57;5.97;;;;;;;5.99;100.00;100793.78;5050577;28;20206;-72
2022/05/05 05:01:56;;;;;;;9.70;6.33;;;;;;;6.06;100.00;100797.03;5050327;28;20197;-73
2022/05/05 05:04:21;;;;;;;7.10;6.20;;;;;;;6.17;100.00;100796.75;5050214;28;20646;-72
2022/05/05 05:06:47;;;;;;;7.27;6.57;;;;;;;6.26;100.00;100797.03;5050343;28;20228;-72
2022/05/05 05:09:12;;;;;;;8.07;5.90;;;;;;;6.36;98.61;100791.56;5050113;28;20183;-72
2022/05/05 05:11:37;;;;;;;6.97;6.33;;;;;;;6.46;97.52;100790.72;5050188;28;20189;-73
2022/05/05 05:14:03;;;;;;;7.80;5.90;;;;;;;6.55;96.95;100791.81;5050207;28;20185;-72
2022/05/05 05:16:28;;;;;;;6.43;5.87;;;;;;;6.62;96.33;100807.78;5050196;28;20221;-72
2022/05/05 05:18:54;;;;;;;6.03;5.53;;;;;;;6.64;95.41;100802.91;5050119;28;20667;-72
2022/05/05 05:21:20;;;;;;;10.63;6.70;;;;;;;6.72;94.53;100807.75;5050089;28;20267;-72
2022/05/05 05:23:45;;;;;;;6.87;6.20;;;;;;;6.80;93.74;100818.06;5050217;28;20176;-72
2022/05/05 05:26:11;;;;;;;6.27;5.63;;;;;;;6.85;92.57;100809.91;5050025;28;20178;-71
2022/05/05 05:28:36;;;;;;;8.00;5.73;;;;;;;6.94;92.10;100824.50;5049881;28;20206;-72
2022/05/05 05:31:01;;;;;;;11.10;5.37;;;;;;;6.97;91.58;100826.69;5049985;28;20221;-71
2022/05/05 05:33:27;;;;;;;8.90;6.20;;;;;;;7.05;90.91;100814.41;5049990;28;20240;-72
2022/05/05 05:35:52;;;;;;;8.63;7.00;;;;;;;7.13;90.40;100822.81;5049939;28;20269;-72
2022/05/05 05:38:19;;;;;;;6.83;6.13;;;;;;;7.26;90.35;100829.56;5049560;28;20249;-73
2022/05/05 05:40:44;;;;;;;7.77;6.97;;;;;;;7.36;89.38;100824.03;5049874;28;20179;-72
2022/05/05 05:43:09;;;;;;;8.50;6.20;;;;;;;7.44;87.14;100831.63;5049890;28;20200;-72
2022/05/05 05:45:35;;;;;;;6.50;5.80;;;;;;;7.54;86.28;100833.47;5053886;28;20186;-72
2022/05/05 05:48:00;;;;;;;6.90;5.97;;;;;;;7.57;85.65;100838.34;5053324;28;20325;-72
2022/05/05 05:50:27;;;;;;;7.30;6.53;;;;;;;7.65;85.77;100848.59;5053627;28;20629;-73
2022/05/05 05:52:52;;;;;;;6.43;5.83;;;;;;;7.67;84.87;100841.00;5053606;28;20266;-72
2022/05/05 05:55:18;;;;;;;9.47;6.07;;;;;;;7.78;84.48;100841.72;5035649;28;20738;-73
2022/05/05 05:57:43;;;;;;;8.53;5.83;;;;;;;7.89;83.97;100848.72;5053205;28;20221;-73
2022/05/05 06:00:09;;;;;;;6.63;6.00;;;;;;;7.99;82.90;100848.66;5053299;28;20577;-71
2022/05/05 06:05:18;;;;;;;6.20;5.60;;;;;;;8.19;81.07;100864.00;5053330;28;20189;-73
2022/05/05 06:07:44;;;;;;;5.90;5.43;;;;;;;8.32;82.10;100867.97;5053290;28;20278;-72
2022/05/05 06:10:09;;;;;;;9.67;6.30;;;;;;;8.35;80.49;100864.69;5053226;28;20182;-72
2022/05/05 06:12:35;;;;;;;7.03;6.33;;;;;;;8.42;80.62;100870.63;5052996;28;20528;-72
2022/05/05 06:15:00;;;;;;;6.93;6.20;;;;;;;8.54;81.52;100871.06;5053056;28;20250;-74
2022/05/05 06:17:25;;;;;;;8.00;6.93;;;;;;;8.64;81.58;100873.69;5052870;28;20175;-73
2022/05/05 06:19:51;;;;;;;8.37;7.30;;;;;;;8.79;80.05;100871.91;5052826;28;20600;-71
2022/05/05 06:22:16;;;;;;;7.27;6.67;;;;;;;8.89;77.83;100871.78;5052991;28;20175;-73
2022/05/05 06:24:41;;;;;;;9.07;6.03;;;;;;;8.96;78.79;100874.97;5052834;28;20262;-72
2022/05/05 06:27:07;;;;;;;7.30;6.57;;;;;;;9.03;77.81;100880.09;5052825;28;20171;-73
2022/05/05 06:29:32;;;;;;;7.60;6.80;;;;;;;9.09;78.03;100882.44;5052714;28;20176;-73
2022/05/05 06:31:58;;;;;;;6.93;6.30;;;;;;;9.24;79.13;100886.91;5052773;28;20179;-73
2022/05/05 06:34:23;;;;;;;7.37;6.80;;;;;;;9.38;79.59;100885.09;5052701;28;20216;-72
2022/05/05 06:36:48;;;;;;;6.70;5.80;;;;;;;9.53;78.61;100889.53;5034731;28;20179;-73
2022/05/05 06:39:14;;;;;;;10.87;5.00;;;;;;;9.63;77.44;100877.69;5052294;28;20199;-72
2022/05/05 06:41:39;;;;;;;7.63;6.93;;;;;;;9.62;77.30;100882.31;5052494;28;20207;-72
2022/05/05 06:44:04;;;;;;;7.63;6.93;;;;;;;9.64;76.71;100884.75;5052406;28;20240;-72
2022/05/05 06:46:30;;;;;;;9.83;7.30;;;;;;;9.75;77.32;100887.06;5052614;28;20187;-72
2022/05/05 06:48:55;;;;;;;8.13;7.50;;;;;;;9.91;77.37;100897.75;5052292;28;20190;-72
2022/05/05 06:51:20;;;;;;;7.00;6.50;;;;;;;9.94;77.01;100899.88;5052561;28;20402;-72
2022/05/05 06:53:46;;;;;;;6.43;5.57;;;;;;;9.95;78.61;100894.13;5052288;28;20641;-72
2022/05/05 06:56:11;;;;;;;8.17;6.53;;;;;;;9.98;78.31;100896.28;5052187;28;20175;-72
2022/05/05 06:58:37;;;;;;;7.73;7.03;;;;;;;9.98;77.63;100899.00;5051873;28;20203;-72
2022/05/05 07:03:46;;;;;;;7.93;6.13;;;;;;;9.99;76.62;100895.19;5052237;28;20182;-73
2022/05/05 07:06:11;;;;;;;7.20;5.73;;;;;;;10.03;76.35;100896.19;5052189;28;20536;-72
2022/05/05 07:11:23;;;;;;;5.67;5.10;;;;;;;10.25;73.95;100905.72;5052432;28;20270;-73
2022/05/05 07:13:48;;;;;;;6.20;4.93;;;;;;;10.34;73.87;100902.00;5052072;28;20505;-73
2022/05/05 07:16:14;;;;;;;9.50;5.23;;;;;;;10.39;72.68;100899.19;5052005;28;20194;-73
2022/05/05 07:18:39;;;;;;;6.67;4.53;;;;;;;10.41;71.97;100901.63;5051590;28;20249;-72
2022/05/05 07:21:04;;;;;;;5.67;4.60;;;;;;;10.49;71.56;100909.13;5051753;28;20182;-72
2022/05/05 07:23:30;;;;;;;10.40;5.70;;;;;;;10.68;73.58;100900.88;5051627;28;20229;-73
2022/05/05 07:25:55;;;;;;;7.70;5.60;;;;;;;10.78;71.92;100900.69;5051657;28;20301;-73
2022/05/05 07:28:21;;;;;;;9.37;5.70;;;;;;;10.76;70.87;100902.13;5051328;28;20537;-73
2022/05/05 07:30:46;;;;;;;9.83;6.07;;;;;;;10.85;70.92;100905.75;5051356;28;20176;-72
2022/05/05 07:33:12;;;;;;;6.30;5.70;;;;;;;11.07;71.29;100907.81;5051613;28;20259;-73
2022/05/05 07:35:40;;;;;;;7.30;5.40;;;;;;;11.24;69.58;100918.97;5051505;28;20171;-73
2022/05/05 07:38:05;;;;;;;7.70;5.40;;;;;;;11.29;68.80;100914.22;5032561;28;20260;-73
2022/05/05 07:40:31;;;;;;;5.23;4.73;;;;;;;11.44;70.00;100904.06;5051345;28;20631;-73
2022/05/05 07:42:56;;;;;;;5.63;5.13;;;;;;;11.51;67.85;100909.94;5051231;28;20187;-73
2022/05/05 07:45:22;;;;;;;7.23;4.70;;;;;;;11.37;64.20;100915.41;5051373;28;20178;-73
2022/05/05 07:47:48;;;;;;;6.57;5.53;;;;;;;11.51;67.27;100918.94;5051173;28;20276;-73
2022/05/05 07:50:14;;;;;;;5.73;5.17;;;;;;;11.60;67.62;100916.31;5051204;28;20258;-73
2022/05/05 07:52:39;;;;;;;5.97;5.40;;;;;;;11.67;67.78;100919.44;5051222;28;20213;-73
2022/05/05 07:55:05;;;;;;;6.73;5.20;;;;;;;11.73;66.73;100926.44;5051099;28;20248;-73
2022/05/05 07:57:31;;;;;;;5.60;4.20;;;;;;;11.68;65.60;100917.50;5050866;28;20206;-72
2022/05/05 07:59:56;;;;;;;5.87;5.27;;;;;;;11.78;66.79;100923.56;5050957;28;20233;-73
2022/05/05 08:02:22;;;;;;;7.53;4.83;;;;;;;11.99;66.85;100926.69;5051083;28;20207;-73
2022/05/05 08:04:47;;;;;;;7.73;4.10;;;;;;;12.06;66.18;100931.75;5032933;28;20180;-73
2022/05/05 08:07:13;;;;;;;6.03;4.80;;;;;;;11.92;63.45;100920.84;5050288;28;20182;-73
2022/05/05 08:09:38;;;;;;;5.03;4.53;;;;;;;12.15;64.42;100930.72;5051068;28;20649;-72
2022/05/05 08:12:04;;;;;;;4.57;4.03;;;;;;;12.08;62.03;100943.19;5049708;28;20182;-72
2022/05/05 08:14:30;;;;;;;5.10;4.33;;;;;;;12.14;61.31;100937.28;5050813;28;20183;-73
2022/05/05 08:16:57;;;;;;;4.60;3.87;;;;;;;12.15;61.73;100936.19;5050707;28;20182;-73
2022/05/05 08:19:22;;;;;;;8.53;5.17;;;;;;;12.31;63.06;100938.56;5050516;28;20234;-72
2022/05/05 08:21:48;;;;;;;6.43;5.40;;;;;;;12.39;63.25;100940.53;5032703;28;20276;-73
2022/05/05 08:29:42;;;;;;;5.93;5.30;;;;;;;12.21;63.12;100943.16;5030674;28;20177;-73
2022/05/05 08:32:07;;;;;;;6.53;5.37;;;;;;;12.25;62.92;100948.81;5030587;28;20258;-73
2022/05/05 08:34:33;;;;;;;6.13;5.53;;;;;;;12.34;64.10;100937.94;5030576;28;20247;-73
2022/05/05 08:36:59;;;;;;;6.43;5.80;;;;;;;12.33;63.43;100941.81;5030428;28;20180;-72
2022/05/05 08:39:24;;;;;;;7.57;5.80;;;;;;;12.28;63.58;100937.22;5030343;28;20314;-72
2022/05/05 08:41:51;;;;;;;5.47;4.97;;;;;;;12.40;62.78;100948.44;5030531;28;20214;-73
2022/05/05 08:44:16;;;;;;;6.20;5.30;;;;;;;12.50;62.65;100944.66;5030666;28;20179;-73
2022/05/05 08:46:45;;;;;;;5.23;4.83;;;;;;;12.64;62.87;100950.88;5030435;28;20758;-73
2022/05/05 08:49:12;;;;;;;5.90;4.80;;;;;;;12.82;63.33;100955.34;5044932;28;20179;-73
2022/05/05 08:51:44;;;;;;;6.40;4.90;;;;;;;12.80;62.48;100952.13;5032734;28;20176;-74
2022/05/05 08:54:16;;;;;;;5.83;4.67;;;;;;;12.81;61.69;100953.72;5050022;28;20234;-74
2022/05/05 08:56:48;;;;;;;5.87;4.70;;;;;;;12.99;62.08;100962.03;5050132;28;20314;-72
2022/05/05 08:59:14;;;;;;;5.03;4.53;;;;;;;13.07;60.76;100958.56;5050049;28;20670;-72
2022/05/05 09:01:39;;;;;;;6.73;4.77;;;;;;;13.12;60.33;100958.41;5050147;28;20175;-72
2022/05/05 09:04:06;;;;;;;9.63;4.33;;;;;;;13.25;60.71;100964.94;5049719;28;20305;-73
2022/05/05 09:06:48;;;;;;;4.77;3.23;;;;;;;13.25;58.95;100967.69;5050112;28;20171;-74
2022/05/05 09:09:34;;;;;;;5.73;3.83;;;;;;;13.32;59.37;100959.81;5032186;28;20261;-74
2022/05/05 09:12:16;;;;;;;5.30;2.97;;;;;;;13.27;59.41;100966.25;5050432;28;20183;-74
2022/05/05 09:14:53;;;;;;;5.17;3.57;;;;;;;13.25;59.06;100973.19;5030253;28;20183;-75
2022/05/05 09:17:23;;;;;;;5.20;3.97;;;;;;;13.17;58.60;100977.50;5029862;28;20172;-75
2022/05/05 09:19:53;;;;;;;6.77;4.43;;;;;;;13.26;58.71;100972.88;5032580;28;20215;-73
2022/05/05 09:22:24;;;;;;;7.90;4.83;;;;;;;13.37;57.62;100978.88;5034067;28;20649;-72
2022/05/05 09:24:51;;;;;;;8.37;5.00;;;;;;;13.52;58.30;100969.41;5029476;28;20621;-73
2022/05/05 09:27:27;;;;;;;5.00;4.33;;;;;;;13.63;57.60;100970.75;5051876;28;20584;-72
2022/05/05 09:29:56;;;;;;;6.83;4.33;;;;;;;13.60;54.19;100963.97;5041149;28;20179;-73
2022/05/05 09:32:26;;;;;;;4.53;4.13;;;;;;;13.76;55.80;100971.75;5053842;28;20207;-73
2022/05/05 09:34:59;;;;;;;5.00;4.37;;;;;;;13.86;55.60;100964.00;5053598;28;20618;-73
2022/05/05 09:37:25;;;;;;;5.20;4.40;;;;;;;13.72;55.99;100968.81;5053317;28;20171;-73
2022/05/05 09:39:58;;;;;;;4.63;4.20;;;;;;;13.74;53.45;100971.25;5053195;28;20207;-73
2022/05/05 09:42:38;;;;;;;7.17;5.20;;;;;;;13.62;53.90;100971.88;5053668;28;20187;-72
2022/05/05 09:45:23;;;;;;;4.90;4.50;;;;;;;13.85;55.37;100975.31;5053549;28;20621;-73
2022/05/05 09:48:00;;;;;;;6.97;4.83;;;;;;;14.11;56.33;100976.16;5053177;28;20241;-72
2022/05/05 09:50:28;;;;;;;6.40;4.90;;;;;;;14.22;54.79;100980.22;5059815;28;20171;-72
2022/05/05 09:58:34;;;;;;;3.47;2.80;;;;;;;14.63;46.95;100992.69;5052896;28;20230;-72
2022/05/05 10:01:05;;;;;;;4.87;3.67;;;;;;;14.64;49.18;100988.00;5053274;28;20199;-72
2022/05/05 10:04:06;;;;;;;5.70;4.53;;;;;;;14.62;49.29;100990.28;5053116;28;20175;-72
2022/05/05 10:06:34;;;;;;;4.10;3.70;;;;;;;14.76;50.30;100980.72;5053066;28;20241;-72
2022/05/05 10:09:06;;;;;;;3.57;3.23;;;;;;;15.02;48.43;100988.88;5052802;28;20202;-72
2022/05/05 10:11:33;;;;;;;4.17;3.70;;;;;;;14.89;46.38;100987.94;5052557;28;20210;-72
2022/05/05 10:14:04;;;;;;;5.60;4.50;;;;;;;15.09;48.29;100997.47;5053020;28;20655;-72
2022/05/05 10:16:31;;;;;;;3.07;2.70;;;;;;;15.15;43.68;100989.81;5052675;28;20168;-72
2022/05/05 10:18:57;;;;;;;4.13;2.57;;;;;;;15.18;43.52;100986.41;5052487;28;20237;-72
2022/05/05 10:21:47;;;;;;;3.20;2.97;;;;;;;15.36;44.95;100998.19;5052620;28;20269;-73
2022/05/05 10:24:28;;;;;;;3.10;2.90;;;;;;;15.37;42.94;100997.03;5052924;28;20179;-72
2022/05/05 10:26:56;;;;;;;3.30;2.13;;;;;;;15.44;43.21;100995.38;5052589;28;20179;-73
2022/05/05 10:29:41;;;;;;;4.80;4.13;;;;;;;15.07;43.97;100987.91;5048545;28;20296;-72
2022/05/05 10:32:16;;;;;;;1.30;1.20;;;;;;;15.23;38.77;100983.50;5049016;28;20190;-72
2022/05/05 10:34:46;;;;;;;1.90;0.80;;;;;;;15.42;41.08;100989.41;5047197;28;20182;-73
2022/05/05 10:37:18;;;;;;;3.17;2.73;;;;;;;15.43;43.66;100985.50;5051567;28;20172;-73
2022/05/05 10:39:45;;;;;;;3.73;3.43;;;;;;;15.45;43.93;100988.72;5036723;28;20632;-74
2022/05/05 10:42:16;;;;;;;4.93;3.73;;;;;;;15.53;44.08;100983.53;5052729;28;20183;-73
2022/05/05 10:45:05;;;;;;;3.20;2.73;;;;;;;15.59;44.02;100983.03;5052521;28;20182;-70
2022/05/05 10:47:55;;;;;;;5.13;3.90;;;;;;;15.06;43.69;100989.06;5052503;28;20183;-70
2022/05/05 10:50:39;;;;;;;4.57;3.63;;;;;;;14.87;45.56;100976.44;5052324;28;20176;-71
2022/05/05 10:53:08;;;;;;;3.60;3.30;;;;;;;15.30;46.18;100983.78;5052318;28;20171;-71
2022/05/05 10:55:39;;;;;;;4.40;3.90;;;;;;;15.75;47.41;100978.56;5052461;28;20732;-71
2022/05/05 10:58:05;;;;;;;3.07;2.87;;;;;;;15.51;44.84;100978.34;5052202;28;20270;-71
2022/05/05 11:00:43;;;;;;;3.80;3.37;;;;;;;15.36;46.40;100981.66;5052213;28;20285;-70
2022/05/05 11:03:09;;;;;;;3.07;2.53;;;;;;;15.70;47.01;100977.97;5052062;28;20168;-71
2022/05/05 11:05:38;;;;;;;5.10;4.70;;;;;;;15.65;47.22;100975.41;5052285;28;20198;-70
2022/05/05 11:08:10;;;;;;;3.93;3.53;;;;;;;15.67;47.99;100976.69;5051683;28;20211;-71
2022/05/05 11:10:41;;;;;;;5.90;3.47;;;;;;;15.93;47.88;100971.03;5052018;28;20171;-71
2022/05/05 11:13:07;;;;;;;4.80;2.53;;;;;;;16.11;46.78;100981.91;5051815;28;20178;-71
2022/05/05 11:21:32;;;;;;;2.57;2.37;;;;;;;16.65;48.38;100980.81;5051853;28;20241;-70
2022/05/05 11:24:02;;;;;;;3.70;2.90;;;;;;;16.43;47.27;100972.09;5055317;28;20527;-70
2022/05/05 11:26:29;;;;;;;4.40;2.90;;;;;;;16.62;47.61;100973.19;5058178;28;20237;-71
2022/05/05 11:28:58;;;;;;;13.63;3.20;;;;;;;16.87;47.70;100976.06;5051460;28;20171;-70
2022/05/05 11:31:29;;;;;;;2.80;2.47;;;;;;;16.40;46.32;100970.81;5051839;28;20171;-71
2022/05/05 11:34:03;;;;;;;3.23;2.07;;;;;;;16.82;47.44;100971.59;5051736;28;20202;-73
2022/05/05 11:36:33;;;;;;;2.53;2.27;;;;;;;17.13;47.55;100973.03;5051247;28;20175;-70
2022/05/05 11:38:59;;;;;;;2.43;2.17;;;;;;;17.21;46.28;100975.72;5051351;28;20238;-70
2022/05/05 11:41:25;;;;;;;2.30;2.10;;;;;;;17.24;45.55;100975.00;5050453;28;20582;-73
2022/05/05 11:46:36;;;;;;;2.43;1.80;;;;;;;17.12;44.51;100977.75;5051075;28;20328;-71
2022/05/05 11:49:02;;;;;;;2.00;1.80;;;;;;;16.75;43.18;100982.34;5050824;28;20171;-70
2022/05/05 11:51:33;;;;;;;2.13;1.93;;;;;;;17.18;45.08;100981.88;5051444;28;20177;-70
2022/05/05 11:54:04;;;;;;;2.07;1.93;;;;;;;17.40;44.95;100988.16;5033063;28;20267;-70
2022/05/05 11:56:30;;;;;;;2.93;2.33;;;;;;;17.46;46.68;100981.22;5051058;28;20175;-70
2022/05/05 12:02:04;;;;;;;3.00;1.97;;;;;;;17.06;44.81;100976.34;5050831;28;20588;-71
2022/05/05 12:04:30;;;;;;;1.63;1.50;;;;;;;17.36;46.21;100970.63;5050864;28;20193;-70
2022/05/05 12:06:57;;;;;;;1.87;1.53;;;;;;;17.38;44.97;100971.91;5050608;28;20171;-70
2022/05/05 12:09:23;;;;;;;3.27;1.57;;;;;;;17.32;44.26;100973.28;5050703;28;20696;-70
2022/05/05 12:11:48;;;;;;;3.13;1.40;;;;;;;17.36;45.20;100984.44;5050560;28;20257;-71